Airfield :
LOGIN :

Register | Disclaimer

   EN    FR    IT 

 










Legend :    VFR   Marginal VFR   IFR   Intensive IFR   Very Intensive IFR
Visi :
Ceiling :
>= 8 km
>= 3000ft
5 to 8 km
1000 to 3000 ft
1500m to 5 km
500 to 1000 ft
800 to 1500m
200 to 500 ft
< 800m
< 200 ft
Symbols :   Thunderstorms  Fog  Heavy snow  Heavy precipitations  Wind > 20 kt
SIGMETs :     Misc.  Thunderstorms  Icing  Turbulence  Mountain Waves  Volcanic Ashes







- Airport Elevation : 268 ft
- IATA code : BFS
- Download approach charts


EGAA - Belfast Aldergrove

CURRENT METAR :
  • 190420Z 16005KT 9999 FEW036 02/02 Q1023

EXPIRED METARs :
  • 190350Z 16005KT 9999 BKN032 02/02 Q1024
  • 190320Z VRB02KT 9999 BKN031 BKN036 02/02 Q1024
  • 190250Z 19004KT 9999 FEW032 02/02 Q1024
  • 190220Z 24004KT 9999 BKN033 02/02 Q1024
  • 190150Z VRB02KT CAVOK 02/01 Q1024

TAF TAF EGAA
Valid from the 19 at 00:00 until the 20 at 00:00 UTC


182259Z 1900/1924 VRB03KT 9999 SCT030
PROB30
TEMPO 1900/1908 5000 BR
BECMG 1912/1915 19010KT
TEMPO 1915/1921 BKN008
PROB30
TEMPO 1915/1919 8000 -RA
TEMPO 1919/1924 5000 RA
BECMG 1921/1924 BKN004
PROB30
TEMPO 1921/1924 19015G25KT
No reported NOTAMs for that airfield.
1 SIGMET reported for the Scottish FIR (EGPX) :
 
Severe turbulence
EGPX SIGMET 01 VALID 190330/190730 EGRR
EGPX SCOTTISH FIR SEV TURB FCST WI N5939 E00034 - N5700 E00500 - N5512 E00500 - N5724 E00028 - N5939 E00034 SFC/FL060 MOV SSE 10KT NC=



MET'MAP, your aeronautical weather chart ! - Copyright ORBIFLY December 2007 - Disclaimer

ORBIFLY MET'MAP TEAM :

Programming & Development : Alexandra Zaïnal
Concept & Development : Baudouin d'Aumeries
Co-Development & Prog : Marc-Olivier Méhu
Technical & hardware support : Manuel Goepfert

Contact : metmap@orbifly.com




SOURCES & CREDITS :

   NOAA